Time;durP1;ratioP1;P1;durP2;ratioP2;P2;SDS_P1;SDS_P2;PMS_P1;PMS_P2;Temp;Humidity;BMP_temperature;BMP_pressure;BME280_temperature;BME280_humidity;BME280_pressure;Samples;Min_cycle;Max_cycle;Signal;HPM_P1;HPM_P2
2022/07/21 00:00:21;;;;;;;18.50;14.50;;;;;;;21.07;100.00;101631.78;5173678;27;20042;-55
2022/07/21 00:02:49;;;;;;;18.20;14.30;;;;;;;21.14;100.00;101628.53;5171182;27;20079;-52
2022/07/21 00:05:19;;;;;;;18.13;14.20;;;;;;;21.22;100.00;101628.63;5154706;27;20042;-54
2022/07/21 00:07:47;;;;;;;16.13;13.85;;;;;;;21.24;100.00;101626.63;5173266;27;20074;-57
2022/07/21 00:10:16;;;;;;;17.58;14.50;;;;;;;21.20;100.00;101619.88;5173117;27;20038;-54
2022/07/21 00:12:44;;;;;;;16.77;14.65;;;;;;;21.22;100.00;101620.59;5173177;27;21065;-54
2022/07/21 00:15:15;;;;;;;17.95;14.65;;;;;;;20.98;100.00;101640.72;5170855;27;20118;-55
2022/07/21 00:17:44;;;;;;;18.83;14.48;;;;;;;20.88;100.00;101642.59;5152620;27;20050;-52
2022/07/21 00:20:14;;;;;;;18.50;15.85;;;;;;;20.84;100.00;101654.59;5173483;27;20458;-55
2022/07/21 00:22:44;;;;;;;18.50;15.35;;;;;;;20.91;100.00;101648.50;5172208;27;20034;-53
2022/07/21 00:25:14;;;;;;;18.70;14.88;;;;;;;20.89;100.00;101655.81;5173602;27;20046;-56
2022/07/21 00:27:43;;;;;;;18.20;15.15;;;;;;;20.92;100.00;101654.69;5171275;27;20038;-55
2022/07/21 00:30:12;;;;;;;17.98;15.93;;;;;;;20.91;100.00;101648.50;5171753;27;20564;-56
2022/07/21 00:32:40;;;;;;;19.58;15.57;;;;;;;20.87;100.00;101649.75;5170699;27;20061;-55
2022/07/21 00:35:10;;;;;;;17.23;14.82;;;;;;;20.88;100.00;101643.44;5170166;27;20068;-55
2022/07/21 00:37:39;;;;;;;18.42;14.98;;;;;;;20.99;100.00;101645.06;5173384;27;20050;-56
2022/07/21 00:40:10;;;;;;;17.75;15.07;;;;;;;20.93;100.00;101640.34;5173061;27;20085;-55
2022/07/21 00:42:39;;;;;;;16.70;14.90;;;;;;;20.99;100.00;101639.72;5172939;27;20508;-56
2022/07/21 00:45:08;;;;;;;20.15;16.05;;;;;;;20.98;100.00;101630.00;5171880;27;20069;-54
2022/07/21 00:47:37;;;;;;;16.95;15.02;;;;;;;20.94;100.00;101639.31;5168169;27;20042;-56
2022/07/21 00:50:09;;;;;;;16.75;14.65;;;;;;;20.92;100.00;101644.00;5172477;27;20125;-55
2022/07/21 00:52:37;;;;;;;18.02;14.32;;;;;;;20.93;100.00;101630.47;5175334;27;20496;-54
2022/07/21 00:55:06;;;;;;;17.40;14.07;;;;;;;20.92;100.00;101634.13;5177008;27;20438;-55
2022/07/21 00:57:36;;;;;;;17.02;14.65;;;;;;;20.93;100.00;101630.47;5175603;27;20087;-57
2022/07/21 01:00:06;;;;;;;14.80;12.82;;;;;;;21.00;100.00;101638.75;5174276;27;20492;-54
2022/07/21 01:02:36;;;;;;;16.80;14.35;;;;;;;20.89;100.00;101637.09;5176426;27;20050;-53
2022/07/21 01:05:05;;;;;;;15.10;12.88;;;;;;;20.85;100.00;101629.53;5175103;27;20087;-56
2022/07/21 01:07:34;;;;;;;15.30;13.70;;;;;;;20.84;100.00;101619.84;5146032;27;20042;-54
2022/07/21 01:10:02;;;;;;;14.73;12.50;;;;;;;20.89;100.00;101617.56;5174367;27;20538;-55
2022/07/21 01:12:30;;;;;;;18.08;14.02;;;;;;;20.83;100.00;101610.13;5157119;27;20057;-54
2022/07/21 01:15:00;;;;;;;16.38;13.68;;;;;;;20.80;100.00;101607.75;5176493;27;20046;-52
2022/07/21 01:17:28;;;;;;;16.73;13.48;;;;;;;20.68;100.00;101615.09;5176604;27;20057;-57
2022/07/21 01:19:56;;;;;;;17.77;14.10;;;;;;;20.62;100.00;101607.69;5176549;27;20098;-59
2022/07/21 01:22:26;;;;;;;16.73;14.60;;;;;;;20.59;100.00;101616.84;5176822;27;20045;-57
2022/07/21 01:24:54;;;;;;;18.27;15.38;;;;;;;20.59;100.00;101606.97;5157838;27;20038;-56
2022/07/21 01:27:25;;;;;;;18.00;15.10;;;;;;;20.51;100.00;101606.03;5157693;27;20673;-54
2022/07/21 01:29:53;;;;;;;18.33;14.48;;;;;;;20.42;100.00;101616.63;5176060;27;20038;-53
2022/07/21 01:32:21;;;;;;;16.83;14.15;;;;;;;20.22;100.00;101613.16;5176454;27;20046;-57
2022/07/21 01:34:50;;;;;;;17.73;15.23;;;;;;;20.16;100.00;101621.72;5172081;27;20500;-56
2022/07/21 01:37:22;;;;;;;16.70;13.88;;;;;;;20.09;100.00;101618.78;5172511;27;20052;-57
2022/07/21 01:42:38;;;;;;;18.95;13.98;;;;;;;20.34;100.00;101612.97;5173477;27;20065;-56
2022/07/21 01:45:07;;;;;;;18.13;15.57;;;;;;;20.36;100.00;101627.03;5174016;27;20086;-58
2022/07/21 01:47:35;;;;;;;20.35;14.80;;;;;;;20.28;100.00;101622.41;5175842;27;20038;-57
2022/07/21 01:50:05;;;;;;;17.45;15.18;;;;;;;20.29;100.00;101621.44;5172597;27;20045;-55
2022/07/21 01:52:33;;;;;;;17.63;15.10;;;;;;;20.35;100.00;101623.50;5172547;27;20038;-53
2022/07/21 01:55:03;;;;;;;17.30;14.90;;;;;;;20.32;100.00;101615.78;5175664;27;20042;-56
2022/07/21 01:57:31;;;;;;;16.83;14.90;;;;;;;20.40;100.00;101607.91;5175198;27;20038;-57
2022/07/21 01:59:59;;;;;;;15.85;14.15;;;;;;;20.38;100.00;101609.88;5156295;27;20406;-56
2022/07/21 02:02:27;;;;;;;17.95;14.75;;;;;;;20.32;100.00;101605.13;5175732;27;20056;-56
2022/07/21 02:04:55;;;;;;;17.80;14.70;;;;;;;20.29;100.00;101604.53;5172016;27;20111;-57
2022/07/21 02:07:23;;;;;;;16.35;14.60;;;;;;;20.33;100.00;101601.47;5171556;27;20099;-56
2022/07/21 02:09:51;;;;;;;15.23;13.35;;;;;;;20.36;100.00;101603.00;5175183;27;20048;-57
2022/07/21 02:12:21;;;;;;;21.65;15.30;;;;;;;20.31;100.00;101591.91;5175166;27;20042;-55
2022/07/21 02:14:49;;;;;;;21.50;15.60;;;;;;;20.24;100.00;101596.97;5175798;27;20145;-55
2022/07/21 02:17:17;;;;;;;16.45;14.75;;;;;;;20.23;100.00;101593.47;5175133;27;20034;-57
2022/07/21 02:19:45;;;;;;;18.13;15.82;;;;;;;20.18;100.00;101590.41;5173390;27;20061;-56
2022/07/21 02:22:13;;;;;;;18.25;15.30;;;;;;;20.26;100.00;101584.34;5175515;27;20046;-56
2022/07/21 02:24:41;;;;;;;19.65;15.35;;;;;;;20.22;100.00;101582.91;5174243;27;20050;-54
2022/07/21 02:27:09;;;;;;;17.52;15.00;;;;;;;20.21;100.00;101594.63;5172463;27;20085;-55
2022/07/21 02:29:39;;;;;;;18.30;16.40;;;;;;;20.13;100.00;101592.66;5173861;27;20611;-56
2022/07/21 02:32:07;;;;;;;16.98;14.77;;;;;;;20.13;100.00;101587.31;5145294;27;20046;-57
2022/07/21 02:34:35;;;;;;;19.15;16.17;;;;;;;20.24;100.00;101591.66;5175215;27;20121;-56
2022/07/21 02:37:03;;;;;;;17.33;14.52;;;;;;;20.18;100.00;101590.41;5175291;27;20038;-57
2022/07/21 02:39:31;;;;;;;19.23;16.35;;;;;;;20.15;100.00;101595.19;5174673;27;20054;-56
2022/07/21 02:42:00;;;;;;;18.10;15.95;;;;;;;20.03;100.00;101608.69;5170841;27;20118;-56
2022/07/21 02:44:29;;;;;;;18.05;16.02;;;;;;;19.92;100.00;101599.03;5172737;27;20453;-56
2022/07/21 02:46:58;;;;;;;18.55;16.35;;;;;;;20.04;100.00;101594.38;5174168;27;20068;-56
2022/07/21 02:49:26;;;;;;;21.33;17.90;;;;;;;20.08;100.00;101593.09;5174594;27;20120;-57
2022/07/21 02:51:54;;;;;;;19.20;17.17;;;;;;;20.08;100.00;101595.78;5174206;27;20061;-57
2022/07/21 02:54:23;;;;;;;20.40;17.13;;;;;;;20.06;100.00;101588.88;5173930;27;20552;-57
2022/07/21 02:56:51;;;;;;;20.60;16.55;;;;;;;19.97;100.00;101595.91;5174069;27;20535;-58
2022/07/21 02:59:19;;;;;;;21.10;17.75;;;;;;;19.92;100.00;101593.69;5174200;27;20489;-55
2022/07/21 03:01:47;;;;;;;20.65;17.88;;;;;;;19.98;100.00;101596.78;5173679;27;20038;-53
2022/07/21 03:04:17;;;;;;;23.08;19.40;;;;;;;19.91;100.00;101599.16;5172040;27;20041;-56
2022/07/21 03:06:45;;;;;;;23.77;19.73;;;;;;;19.74;100.00;101590.03;5153452;27;20381;-55
2022/07/21 03:09:14;;;;;;;21.90;18.60;;;;;;;19.68;100.00;101583.44;5175071;27;20038;-57
2022/07/21 03:11:42;;;;;;;20.00;17.58;;;;;;;19.74;100.00;101582.00;5173072;27;20034;-56
2022/07/21 03:14:10;;;;;;;23.83;18.00;;;;;;;19.72;100.00;101576.81;5172680;27;20069;-55
2022/07/21 03:16:38;;;;;;;23.05;18.38;;;;;;;19.73;100.00;101581.19;5167585;27;20045;-55
2022/07/21 03:19:06;;;;;;;21.90;17.15;;;;;;;19.75;100.00;101586.38;5172118;27;20477;-57
2022/07/21 03:21:41;;;;;;;20.73;16.92;;;;;;;19.56;100.00;101584.56;5154799;27;20050;-56
2022/07/21 03:24:09;;;;;;;21.60;15.93;;;;;;;19.54;100.00;101581.22;5171979;27;20045;-56
2022/07/21 03:26:38;;;;;;;19.35;15.43;;;;;;;19.51;100.00;101585.00;5171240;27;20042;-55
2022/07/21 03:29:07;;;;;;;19.23;15.63;;;;;;;19.47;100.00;101588.06;5173570;27;20065;-57
2022/07/21 03:31:35;;;;;;;19.58;16.45;;;;;;;19.39;100.00;101584.28;5168475;27;20046;-58
2022/07/21 03:34:03;;;;;;;19.40;16.02;;;;;;;19.37;100.00;101582.75;5172749;27;20422;-55
2022/07/21 03:36:31;;;;;;;19.77;16.77;;;;;;;19.39;100.00;101586.94;5169382;27;20046;-54
2022/07/21 03:39:01;;;;;;;22.00;17.45;;;;;;;19.41;100.00;101587.66;5173802;27;20042;-58
2022/07/21 03:41:29;;;;;;;22.58;18.42;;;;;;;19.41;100.00;101593.00;5173816;27;20473;-55
2022/07/21 03:43:57;;;;;;;20.02;17.88;;;;;;;19.30;100.00;101594.94;5172850;27;20038;-57
2022/07/21 03:46:25;;;;;;;21.75;19.00;;;;;;;19.28;100.00;101600.44;5170789;27;20042;-55
2022/07/21 03:48:53;;;;;;;21.35;18.42;;;;;;;19.34;100.00;101597.19;5172854;27;20099;-58
2022/07/21 03:51:22;;;;;;;21.27;18.95;;;;;;;19.26;100.00;101597.03;5167354;27;20062;-57
2022/07/21 03:53:50;;;;;;;22.13;19.60;;;;;;;19.22;100.00;101592.97;5152642;27;20050;-55
2022/07/21 03:56:20;;;;;;;24.88;20.38;;;;;;;19.22;100.00;101587.63;5173568;27;20465;-55
2022/07/21 03:58:48;;;;;;;22.27;18.02;;;;;;;19.24;100.00;101589.19;5154758;27;20438;-55
2022/07/21 04:01:16;;;;;;;23.95;20.27;;;;;;;19.18;100.00;101587.09;5154958;27;20399;-57
2022/07/21 04:03:45;;;;;;;24.27;20.40;;;;;;;19.11;100.00;101587.78;5173168;27;20050;-55
2022/07/21 04:06:13;;;;;;;24.67;20.02;;;;;;;19.10;100.00;101589.56;5173617;27;20455;-58
2022/07/21 04:08:41;;;;;;;25.70;20.83;;;;;;;19.21;100.00;101585.94;5172667;27;20473;-55
2022/07/21 04:11:09;;;;;;;24.65;20.38;;;;;;;19.18;100.00;101588.91;5170302;27;20094;-57
2022/07/21 04:13:39;;;;;;;24.20;20.80;;;;;;;19.14;100.00;101592.81;5170095;27;20042;-55
2022/07/21 04:16:07;;;;;;;24.98;20.83;;;;;;;19.15;100.00;101584.69;5173204;27;20043;-58
2022/07/21 04:18:36;;;;;;;23.35;20.85;;;;;;;19.11;100.00;101587.78;5170806;27;20077;-58
2022/07/21 04:21:04;;;;;;;23.88;20.85;;;;;;;19.11;100.00;101590.44;5168741;27;20026;-58
2022/07/21 04:23:32;;;;;;;26.10;21.80;;;;;;;19.14;100.00;101587.47;5172148;27;20069;-57
2022/07/21 04:26:00;;;;;;;24.98;22.27;;;;;;;19.17;100.00;101584.53;5171713;27;20065;-58
2022/07/21 04:28:28;;;;;;;23.40;20.88;;;;;;;19.27;100.00;101588.06;5174466;27;20382;-55
2022/07/21 04:30:58;;;;;;;24.38;21.75;;;;;;;19.24;100.00;101591.03;5176970;27;20046;-56
2022/07/21 04:33:26;;;;;;;23.65;20.90;;;;;;;19.29;100.00;101591.41;5176802;27;20063;-55
2022/07/21 04:35:54;;;;;;;23.48;20.95;;;;;;;19.22;100.00;101591.16;5177198;27;20106;-57
2022/07/21 04:38:22;;;;;;;24.10;20.10;;;;;;;19.30;100.00;101594.94;5175281;27;20060;-57
2022/07/21 04:40:50;;;;;;;24.40;21.08;;;;;;;19.33;100.00;101589.34;5173042;27;20058;-56
2022/07/21 04:43:18;;;;;;;22.98;20.50;;;;;;;19.42;100.00;101591.16;5174245;27;20423;-58
2022/07/21 04:45:47;;;;;;;25.65;21.42;;;;;;;19.44;100.00;101599.84;5174083;27;20042;-57
2022/07/21 04:48:17;;;;;;;29.25;20.58;;;;;;;19.43;100.00;101598.19;5165793;27;20042;-58
2022/07/21 04:50:45;;;;;;;24.75;21.25;;;;;;;19.37;100.00;101599.59;5177522;27;20110;-58
2022/07/21 04:53:13;;;;;;;26.00;20.98;;;;;;;19.22;100.00;101595.63;5177883;27;20552;-58
2022/07/21 04:55:41;;;;;;;26.33;21.40;;;;;;;19.25;100.00;101593.53;5177774;27;20042;-57
2022/07/21 04:58:09;;;;;;;25.33;21.38;;;;;;;19.33;100.00;101595.50;5177753;27;20164;-58
2022/07/21 05:00:37;;;;;;;25.65;22.83;;;;;;;19.36;100.00;101587.25;5176817;27;20101;-57
2022/07/21 05:03:05;;;;;;;24.63;21.23;;;;;;;19.40;100.00;101588.66;5174743;27;20062;-54
2022/07/21 05:05:34;;;;;;;28.40;22.27;;;;;;;19.45;100.00;101590.88;5176614;27;20034;-57
2022/07/21 05:08:03;;;;;;;28.75;21.75;;;;;;;19.38;100.00;101589.75;5175749;27;20049;-57
2022/07/21 05:10:31;;;;;;;26.38;22.00;;;;;;;19.31;100.00;101585.97;5174354;27;20073;-58
2022/07/21 05:12:59;;;;;;;26.25;22.23;;;;;;;19.28;100.00;101584.44;5177470;27;20467;-58
2022/07/21 05:15:27;;;;;;;25.80;22.27;;;;;;;19.09;100.00;101575.41;5177418;27;20112;-55
2022/07/21 05:17:57;;;;;;;28.45;23.23;;;;;;;19.20;100.00;101576.28;5177091;27;20077;-58
2022/07/21 05:20:25;;;;;;;28.08;22.98;;;;;;;19.20;100.00;101568.28;5172926;27;20031;-57
2022/07/21 05:22:55;;;;;;;28.70;23.13;;;;;;;19.31;100.00;101572.66;5173795;27;20030;-58
2022/07/21 05:25:23;;;;;;;27.67;21.98;;;;;;;19.36;100.00;101571.25;5172674;27;20058;-55
2022/07/21 05:27:51;;;;;;;30.63;24.08;;;;;;;19.43;100.00;101567.03;5176102;27;20054;-57
2022/07/21 05:30:20;;;;;;;29.65;24.90;;;;;;;19.51;100.00;101565.47;5175639;27;20042;-57
2022/07/21 05:32:48;;;;;;;31.00;24.67;;;;;;;19.65;100.00;101567.72;5172696;27;20079;-56
2022/07/21 05:35:16;;;;;;;30.88;24.70;;;;;;;19.64;100.00;101558.00;5175548;27;20049;-55
2022/07/21 05:37:45;;;;;;;32.83;25.05;;;;;;;19.66;100.00;101560.53;5174783;27;20110;-55
2022/07/21 05:40:16;;;;;;;29.50;24.08;;;;;;;19.66;100.00;101558.72;5150887;27;20048;-57
2022/07/21 05:42:44;;;;;;;31.25;23.85;;;;;;;19.57;100.00;101554.25;5173880;27;20054;-55
2022/07/21 05:45:13;;;;;;;30.15;25.40;;;;;;;19.63;100.00;101560.81;5175838;27;20049;-57
2022/07/21 05:47:42;;;;;;;33.47;25.02;;;;;;;19.55;100.00;101558.88;5175769;27;20042;-56
2022/07/21 05:50:12;;;;;;;28.45;24.50;;;;;;;19.54;100.00;101563.38;5157287;27;20469;-56
2022/07/21 05:52:41;;;;;;;31.95;26.95;;;;;;;19.55;100.00;101561.53;5154141;27;20042;-55
2022/07/21 05:55:10;;;;;;;33.65;25.88;;;;;;;19.47;100.00;101558.72;5174794;27;20046;-54
2022/07/21 05:57:40;;;;;;;33.72;26.98;;;;;;;19.50;100.00;101558.47;5173545;27;20042;-57
2022/07/21 06:00:14;;;;;;;32.75;27.05;;;;;;;19.45;100.00;101547.38;5174860;27;20431;-56
2022/07/21 06:02:42;;;;;;;36.80;28.40;;;;;;;19.39;100.00;101554.94;5175157;27;20046;-57
2022/07/21 06:05:11;;;;;;;35.70;28.02;;;;;;;19.32;100.00;101548.50;5175503;27;20038;-56
2022/07/21 06:07:40;;;;;;;35.47;27.20;;;;;;;19.34;100.00;101551.03;5175466;27;20054;-56
2022/07/21 06:10:09;;;;;;;32.55;28.00;;;;;;;19.28;100.00;101543.56;5175043;27;20042;-57
2022/07/21 06:12:44;;;;;;;34.40;28.27;;;;;;;19.30;100.00;101549.63;5174982;27;20049;-58
2022/07/21 06:15:14;;;;;;;32.88;27.98;;;;;;;19.32;100.00;101551.16;5173282;27;20054;-56
2022/07/21 06:17:42;;;;;;;35.65;29.33;;;;;;;19.40;100.00;101545.97;5173598;27;20042;-55
2022/07/21 06:20:12;;;;;;;33.00;28.95;;;;;;;19.44;100.00;101551.84;5176134;27;20042;-55
2022/07/21 06:22:40;;;;;;;34.08;28.77;;;;;;;19.49;100.00;101554.09;5176080;27;20031;-56
2022/07/21 06:25:09;;;;;;;34.40;28.52;;;;;;;19.44;100.00;101557.19;5176737;27;20492;-57
2022/07/21 06:27:37;;;;;;;33.28;27.60;;;;;;;19.47;100.00;101559.59;5176363;27;20172;-56
2022/07/21 06:30:08;;;;;;;32.88;28.52;;;;;;;19.46;100.00;101563.22;5157224;27;20093;-59
2022/07/21 06:32:36;;;;;;;34.50;28.98;;;;;;;19.41;100.00;101566.34;5173573;27;20388;-53
2022/07/21 06:35:04;;;;;;;34.78;29.33;;;;;;;19.49;100.00;101567.44;5175053;27;20050;-54
2022/07/21 06:37:33;;;;;;;36.28;29.85;;;;;;;19.60;100.00;101567.28;5155201;27;20110;-55
2022/07/21 06:40:01;;;;;;;35.47;29.70;;;;;;;19.69;100.00;101573.63;5173019;27;20151;-59
2022/07/21 06:42:29;;;;;;;35.78;30.52;;;;;;;19.74;100.00;101584.69;5174646;27;20065;-57
2022/07/21 06:44:57;;;;;;;35.50;28.42;;;;;;;19.73;100.00;101581.19;5175943;27;20042;-58
2022/07/21 06:47:26;;;;;;;37.10;29.55;;;;;;;19.73;100.00;101586.53;5175722;27;20046;-52
2022/07/21 06:49:54;;;;;;;39.13;29.35;;;;;;;19.81;100.00;101587.66;5175597;27;20529;-58
2022/07/21 06:52:27;;;;;;;;;;;;;;;19.87;100.00;101589.78;5175784;27;20050;-55
2022/07/21 06:54:55;;;;;;;31.65;28.17;;;;;;;19.91;100.00;101597.34;5175493;27;20392;-58
2022/07/21 06:57:23;;;;;;;36.45;29.50;;;;;;;20.00;100.00;101598.31;5174868;27;20057;-56
2022/07/21 06:59:51;;;;;;;35.05;29.10;;;;;;;19.95;100.00;101600.56;5172955;27;20046;-59
2022/07/21 07:02:19;;;;;;;34.78;29.02;;;;;;;20.03;100.00;101608.69;5173565;27;20531;-53
2022/07/21 07:04:50;;;;;;;34.53;28.17;;;;;;;20.11;100.00;101610.66;5175083;27;20124;-60
2022/07/21 07:07:18;;;;;;;32.97;29.40;;;;;;;20.22;100.00;101610.47;5175451;27;20047;-55
2022/07/21 07:09:46;;;;;;;33.20;29.20;;;;;;;20.34;100.00;101607.63;5175325;27;20050;-53
2022/07/21 07:12:14;;;;;;;32.35;28.65;;;;;;;20.42;100.00;101607.75;5174416;27;20038;-59
2022/07/21 07:15:02;;;;;;;32.85;29.20;;;;;;;20.41;100.00;101609.59;5172973;27;20038;-57
2022/07/21 07:17:30;;;;;;;32.25;28.20;;;;;;;20.40;100.00;101621.25;5174429;27;20053;-51
2022/07/21 07:20:00;;;;;;;31.92;28.00;;;;;;;20.37;100.00;101605.53;5156554;27;20058;-60
2022/07/21 07:22:28;;;;;;;35.05;27.20;;;;;;;20.35;100.00;101612.00;5174009;27;20045;-59
2022/07/21 07:24:56;;;;;;;29.52;26.35;;;;;;;20.44;100.00;101611.94;5172976;27;20082;-56
2022/07/21 07:27:24;;;;;;;31.20;25.10;;;;;;;20.44;100.00;101611.94;5173587;27;20046;-59
2022/07/21 07:29:58;;;;;;;30.80;24.42;;;;;;;20.49;100.00;101613.34;5175122;27;20050;-60
2022/07/21 07:32:32;;;;;;;28.92;24.65;;;;;;;20.50;100.00;101613.19;5174839;27;20125;-59
2022/07/21 07:35:02;;;;;;;29.40;25.20;;;;;;;20.47;100.00;101612.66;5156329;27;20034;-59
2022/07/21 07:37:30;;;;;;;29.35;24.13;;;;;;;20.28;100.00;101617.06;5174912;27;20083;-59
2022/07/21 07:39:59;;;;;;;31.50;23.05;;;;;;;20.23;100.00;101613.97;5156248;27;20042;-59
2022/07/21 07:42:27;;;;;;;28.83;22.30;;;;;;;20.26;100.00;101614.56;5174477;27;20130;-55
2022/07/21 07:44:55;;;;;;;34.15;23.05;;;;;;;20.24;100.00;101608.50;5174850;27;20069;-54
2022/07/21 07:47:23;;;;;;;30.75;21.95;;;;;;;20.28;100.00;101606.38;5175278;27;20038;-59
2022/07/21 07:49:52;;;;;;;33.35;24.67;;;;;;;20.25;100.00;101606.69;5174883;27;20404;-59
2022/07/21 07:52:22;;;;;;;32.38;23.85;;;;;;;20.24;100.00;101613.00;5174545;27;20044;-58
2022/07/21 07:54:51;;;;;;;34.35;24.02;;;;;;;20.34;100.00;101610.31;5174497;27;20049;-58
2022/07/21 07:57:19;;;;;;;31.30;23.80;;;;;;;20.26;100.00;101613.72;5174828;27;20050;-53
2022/07/21 07:59:47;;;;;;;27.50;22.80;;;;;;;20.38;100.00;101609.88;5174656;27;20050;-57
2022/07/21 08:02:15;;;;;;;30.88;22.38;;;;;;;20.21;100.00;101610.63;5155286;27;20049;-59
2022/07/21 08:04:44;;;;;;;26.13;21.98;;;;;;;20.41;100.00;101611.41;5173573;27;20635;-59
2022/07/21 08:07:12;;;;;;;27.85;22.80;;;;;;;20.49;100.00;101608.00;5170296;27;20121;-57
2022/07/21 08:09:41;;;;;;;29.90;23.55;;;;;;;20.64;100.00;101609.19;5174175;27;20079;-56
2022/07/21 08:12:10;;;;;;;30.00;23.10;;;;;;;20.69;100.00;101603.44;5174608;27;20051;-59
2022/07/21 08:14:38;;;;;;;26.35;21.52;;;;;;;20.59;100.00;101601.63;5174260;27;20117;-56
2022/07/21 08:17:06;;;;;;;27.15;21.65;;;;;;;20.62;100.00;101605.84;5174391;27;20049;-58
2022/07/21 08:19:35;;;;;;;27.58;20.80;;;;;;;20.72;100.00;101597.81;5174426;27;20057;-59
2022/07/21 08:22:03;;;;;;;28.05;20.65;;;;;;;20.87;100.00;101582.94;5174372;27;20397;-59
2022/07/21 08:24:43;;;;;;;27.40;20.30;;;;;;;20.83;100.00;101581.56;5174265;27;20387;-58
2022/07/21 08:27:11;;;;;;;31.45;21.02;;;;;;;20.88;100.00;101597.16;5174069;27;20496;-58
2022/07/21 08:29:39;;;;;;;29.38;20.55;;;;;;;20.90;100.00;101595.16;5174166;27;20121;-58
2022/07/21 08:32:07;;;;;;;26.38;20.38;;;;;;;21.06;100.00;101594.50;5174185;27;20053;-57
2022/07/21 08:34:36;;;;;;;28.38;19.95;;;;;;;21.08;100.00;101590.69;5173884;27;20058;-57
2022/07/21 08:37:04;;;;;;;27.80;20.52;;;;;;;21.15;100.00;101588.28;5173719;27;20042;-59
2022/07/21 08:39:32;;;;;;;28.45;20.83;;;;;;;20.89;100.00;101580.16;5170974;27;20079;-59
2022/07/21 08:42:02;;;;;;;27.02;19.52;;;;;;;21.16;100.00;101586.41;5171468;27;20441;-59
2022/07/21 08:44:32;;;;;;;27.52;19.50;;;;;;;21.28;100.00;101586.06;5173911;27;20130;-54
2022/07/21 08:47:00;;;;;;;30.55;20.02;;;;;;;21.22;100.00;101577.81;5174169;27;20046;-58
2022/07/21 08:49:29;;;;;;;26.80;20.13;;;;;;;21.25;100.00;101582.84;5173892;27;20050;-57
2022/07/21 08:51:57;;;;;;;25.70;19.63;;;;;;;21.29;100.00;101586.91;5173809;27;20401;-55
2022/07/21 08:54:25;;;;;;;29.05;20.80;;;;;;;21.36;100.00;101579.94;5174046;27;20117;-56
2022/07/21 08:56:54;;;;;;;25.48;18.20;;;;;;;21.45;100.00;101581.69;5172543;27;20121;-57
2022/07/21 08:59:24;;;;;;;26.77;20.42;;;;;;;21.40;100.00;101577.78;5171134;27;20042;-58
2022/07/21 09:01:58;;;;;;;26.30;19.70;;;;;;;21.45;100.00;101578.19;5173784;27;20043;-57
2022/07/21 09:04:28;;;;;;;29.90;20.10;;;;;;;21.46;100.00;101582.56;5173922;27;20067;-59
2022/07/21 09:07:06;;;;;;;23.90;18.65;;;;;;;21.40;100.00;101581.31;5172457;27;20500;-56
2022/07/21 09:09:36;;;;;;;28.63;19.50;;;;;;;21.44;100.00;101580.00;5152456;27;20107;-58
2022/07/21 09:12:07;;;;;;;28.42;20.63;;;;;;;21.37;100.00;101583.47;5172801;27;20046;-59
2022/07/21 09:14:37;;;;;;;26.10;20.73;;;;;;;21.24;100.00;101592.72;5175829;27;20121;-55
2022/07/21 09:17:06;;;;;;;28.60;20.90;;;;;;;21.31;100.00;101590.28;5177816;27;20091;-56
2022/07/21 09:19:38;;;;;;;26.40;20.45;;;;;;;21.27;100.00;101589.72;5176658;27;20042;-59
2022/07/21 09:22:12;;;;;;;24.75;19.30;;;;;;;21.04;100.00;101592.00;5172686;27;20082;-60
2022/07/21 09:24:40;;;;;;;28.25;19.40;;;;;;;21.00;100.00;101601.31;5176647;27;20526;-55
2022/07/21 09:27:11;;;;;;;28.58;19.83;;;;;;;20.95;100.00;101590.22;5177328;27;20045;-56
2022/07/21 09:29:44;;;;;;;26.13;18.35;;;;;;;20.99;100.00;101599.63;5175936;27;20050;-60
2022/07/21 09:32:18;;;;;;;21.65;16.02;;;;;;;21.05;100.00;101604.38;5173729;27;20107;-57
2022/07/21 09:34:47;;;;;;;20.30;14.60;;;;;;;21.13;100.00;101613.47;5176073;27;20392;-58
2022/07/21 09:37:15;;;;;;;18.52;13.43;;;;;;;21.18;100.00;101605.84;5174732;27;20422;-60
2022/07/21 09:39:46;;;;;;;17.75;12.07;;;;;;;20.99;100.00;101607.63;5156241;27;20054;-60
2022/07/21 09:42:20;;;;;;;18.70;12.18;;;;;;;21.08;100.00;101612.09;5176913;27;20050;-58
2022/07/21 09:44:51;;;;;;;15.85;10.35;;;;;;;20.94;100.00;101599.22;5158283;27;20413;-60
2022/07/21 09:47:23;;;;;;;15.55;9.80;;;;;;;20.84;100.00;101617.16;5177009;27;20538;-58
2022/07/21 09:49:51;;;;;;;13.02;9.50;;;;;;;20.92;100.00;101618.09;5176858;27;20042;-58
2022/07/21 09:52:41;;;;;;;13.10;8.50;;;;;;;20.86;100.00;101624.03;5176687;27;20065;-57
2022/07/21 09:55:11;;;;;;;12.32;7.95;;;;;;;20.68;100.00;101626.69;5176758;27;20457;-52
2022/07/21 09:57:40;;;;;;;12.27;8.50;;;;;;;20.68;100.00;101624.00;5176795;27;20153;-59
2022/07/21 10:00:12;;;;;;;11.63;6.47;;;;;;;20.57;100.00;101619.66;5176775;27;20125;-58
2022/07/21 10:02:47;;;;;;;7.57;4.78;;;;;;;20.52;100.00;101621.91;5176761;27;20046;-58
2022/07/21 10:05:17;;;;;;;6.93;4.20;;;;;;;20.45;100.00;101618.16;5176618;27;20472;-57
2022/07/21 10:07:47;;;;;;;7.35;4.10;;;;;;;20.45;100.00;101618.16;5176627;27;20558;-59
2022/07/21 10:10:16;;;;;;;9.13;4.65;;;;;;;20.33;100.00;101621.97;5176870;27;20434;-55
2022/07/21 10:12:49;;;;;;;8.63;4.78;;;;;;;19.99;100.00;101626.00;5176564;27;20074;-53
2022/07/21 10:15:19;;;;;;;7.88;4.22;;;;;;;19.97;100.00;101621.78;5175248;27;20046;-57
2022/07/21 10:17:51;;;;;;;7.68;4.45;;;;;;;20.04;100.00;101629.09;5173571;27;20180;-55
2022/07/21 10:20:24;;;;;;;8.18;4.25;;;;;;;20.21;100.00;101630.16;5174491;27;20046;-57
2022/07/21 10:23:01;;;;;;;8.27;5.00;;;;;;;20.04;100.00;101629.09;5176117;27;20042;-55
2022/07/21 10:25:30;;;;;;;8.75;4.90;;;;;;;20.18;100.00;101629.59;5172170;27;20690;-56
2022/07/21 10:28:15;;;;;;;8.52;4.90;;;;;;;20.00;100.00;101633.03;5155138;27;20046;-58
2022/07/21 10:30:46;;;;;;;7.57;4.75;;;;;;;19.95;100.00;101629.94;5176027;27;20048;-55
2022/07/21 10:33:16;;;;;;;7.95;4.85;;;;;;;19.99;100.00;101630.47;5173463;27;20053;-56
2022/07/21 10:35:46;;;;;;;7.82;4.82;;;;;;;19.81;100.00;101627.69;5170790;27;20053;-53
2022/07/21 10:38:36;;;;;;;7.10;4.93;;;;;;;20.05;100.00;101624.56;5176251;27;20121;-58
2022/07/21 10:41:06;;;;;;;8.27;5.03;;;;;;;20.14;100.00;101630.88;5150395;27;20057;-51
2022/07/21 10:43:43;;;;;;;7.18;5.28;;;;;;;20.23;100.00;101633.53;5175717;27;20046;-55
2022/07/21 10:46:35;;;;;;;8.88;5.05;;;;;;;20.29;100.00;101636.59;5175635;27;20053;-56
2022/07/21 10:49:08;;;;;;;7.63;4.70;;;;;;;20.13;100.00;101638.03;5157124;27;20042;-58
2022/07/21 10:51:38;;;;;;;8.73;5.60;;;;;;;20.08;100.00;101633.16;5173991;27;20042;-55
2022/07/21 10:54:21;;;;;;;7.93;5.78;;;;;;;20.15;100.00;101638.75;5172914;27;20050;-55
2022/07/21 10:56:50;;;;;;;;;;;;;;;20.26;100.00;101635.91;5157581;27;20074;-55
2022/07/21 10:59:18;;;;;;;9.93;6.70;;;;;;;20.26;100.00;101640.44;5175771;27;19918;-53
2022/07/21 11:01:47;;;;;;;11.10;7.20;;;;;;;20.04;100.00;101638.91;5174219;27;20038;-55
2022/07/21 11:04:17;;;;;;;13.18;8.27;;;;;;;19.98;100.00;101637.66;5172376;27;20057;-54
2022/07/21 11:06:46;;;;;;;10.70;8.95;;;;;;;19.90;100.00;101637.50;5173929;27;20528;-56
2022/07/21 11:09:16;;;;;;;11.77;9.85;;;;;;;19.98;100.00;101645.66;5175299;27;20069;-54
2022/07/21 11:11:59;;;;;;;11.13;9.13;;;;;;;20.07;100.00;101647.47;5156672;27;20050;-56
2022/07/21 11:14:39;;;;;;;9.82;7.57;;;;;;;20.06;100.00;101651.13;5175250;27;20538;-55
2022/07/21 11:17:11;;;;;;;8.68;5.60;;;;;;;20.05;100.00;101656.59;5175408;27;20038;-57